Tiempo atmosférico en la estación meteorológica de Villena, Alacant/Alicante (486 m.)



Fecha
DESCASC
Temp. máxima en grados centígrados (hora)
DESCASC
Temp. mínima en grados centígrados (hora)
DESCASC
Temp. media en grados centígrados
DESCASC
Racha de viento máxima en m/sg (hora)
DESCASC
Velocidad máxima media en intervalos de 10 minutos(hora)
DESCASC
Precipitaciones diarias en mm
DESCASC
Precipitaciones de 00:00 a 06:00 en mm
DESCASC
Precipitaciones de 06:00 a 12:00 en mm
DESCASC
Precipitaciones de 12:00 a 18:00 en mm
DESCASC
Precipitaciones de 18:00 a 24:00 en mm
DESCASC
15-08-2019 33.2 (15:00) 15.2 (07:40) 24.2 11.67 (15:30) 8.89 (17:40) 0 0 0 0 0
14-08-2019 31.8 (15:30) 13.6 (00:00) 22.7 11.11 (17:20) 8.06 (18:40) 0 0 0 0 0
13-08-2019 29.3 (16:00) 19.7 (00:00) 24.5 11.11 (17:50) 7.5 (18:00) 0 0 0 0 0
12-08-2019 32.1 (15:10) 20 (00:00) 26 11.11 (19:50) 5.83 (20:20) 0 0 0 0 0
11-08-2019 36.5 (14:50) 18.6 (00:00) 27.6 10.28 (15:30) 7.5 (16:20) 0 0 0 0 0
10-08-2019 37.9 (14:20) 19.2 (00:00) 28.6 10 (17:20) 7.5 (18:50) 0 0 0 0 0
09-08-2019 40.4 (17:30) 14.3 (00:00) 27.4 11.39 (18:00) 7.78 (18:00) 0 0 0 0 0
08-08-2019 37.9 (15:20) 17.6 (00:00) 27.8 11.94 (18:50) 8.33 (17:50) 0 0 0 0 0
07-08-2019 38.5 (17:10) 16.2 (00:00) 27.4 10.28 (12:40) 6.11 (12:30) 0 0 0 0 0
06-08-2019 38.1 (15:30) 17.3 (00:00) 27.7 11.11 (14:50) 7.5 (16:30) 0 0 0 0 0
05-08-2019 35.5 (14:50) 17.2 (00:00) 26.4 10 (18:20) 7.5 (18:40) 0 0 0 0 0
04-08-2019 35.7 (17:00) 15.6 (00:00) 25.7 9.72 (18:40) 7.22 (18:30) 0 0 0 0 0
03-08-2019 32.8 (14:40) 18.2 (00:00) 25.5 11.39 (15:40) 6.39 (15:20) 0 0 0 0 0
02-08-2019 32 (16:20) 17.6 (00:00) 24.8 10 (17:50) 6.67 (17:30) 0 0 0 0 0
01-08-2019 34.8 (16:30) 17.8 (00:00) 26.3 11.11 (14:30) 7.5 (14:30) 0 0 0 0 0
31-07-2019 28.4 (13:20) 18.4 (00:00) 23.4 12.22 (18:30) 8.33 (18:40) 0 0 0 0 0
30-07-2019 32.9 (15:10) 14.5 (00:00) 23.7 9.44 (16:20) 6.67 (16:30) 0 0 0 0 0
29-07-2019 32.8 (13:30) 14 (00:00) 23.4 11.39 (15:30) 7.78 (17:30) 0 0 0 0 0
28-07-2019 32.1 (14:40) 17.6 (00:00) 24.8 13.61 (16:20) 8.89 (17:50) 0 0 0 0 0
27-07-2019 32.5 (14:20) 18.2 (00:00) 25.4 16.11 (18:00) 9.44 (17:10) 0 0 0 0 0
26-07-2019 35.2 (14:10) 13.8 (00:00) 24.5 10.83 (16:20) 7.5 (16:20) 0 0 0 0 0
25-07-2019 34.8 (16:00) 12.9 (00:00) 23.8 9.44 (15:30) 7.22 (19:20) 0 0 0 0 0
24-07-2019 35.9 (14:20) 14.3 (00:00) 25.1 11.11 (18:00) 7.78 (18:10) 0 0 0 0 0
23-07-2019 36.1 (15:10) 13.4 (00:00) 24.7 11.39 (15:00) 7.78 (16:20) 0 0 0 0 0
22-07-2019 35.7 (15:30) 19.2 (00:00) 27.5 11.67 (16:10) 8.33 (15:20) 0 0 0 0 0
21-07-2019 34.8 (17:20) 19.3 (00:00) 27 10.28 (15:20) 6.39 (12:40) 0 0 0 0 0
20-07-2019 35.8 (14:50) 16 (00:00) 25.9 11.67 (16:00) 7.5 (18:20) 0 0 0 0 0
19-07-2019 33.8 (14:30) 13.3 (00:00) 23.5 10 (15:30) 7.22 (15:10) 0 0 0 0 0

Gráficas

Temp. máximas Temp. mínimas Temp. medias Precipitaciones Rachas de viento máximas Velocidades máximas media en intervalos de 10 minutos

Datos horarios

Fecha y hora oficial Temperatura (ºC) Velocidad del viento (km/h) Dirección del viento Racha (km/h) Dirección de racha Precipitación (mm) Presión (hPa) Tendencia (hPa) Humedad (%)
2019-08-17 23:00:00 24.7 14 Sudeste 18 Sudeste 0 -- -- 54
2019-08-17 22:00:00 26.7 12 Sudeste 24 Sudeste 0 -- -- 40
2019-08-17 21:00:00 28.4 21 Sudeste 33 Sudeste 0 -- -- 42
2019-08-17 20:00:00 30.6 25 Sudeste 33 Sudeste 0 -- -- 38
2019-08-17 19:00:00 32.6 25 Sur 35 Sudeste 0 -- -- 35
2019-08-17 18:00:00 34.3 22 Sur 35 Sur 0 -- -- 33
2019-08-17 17:00:00 35.2 27 Sudeste 34 Sudeste 0 -- -- 31
2019-08-17 16:00:00 35.3 24 Sudeste 35 Sudeste 0 -- -- 28
2019-08-17 15:00:00 35.6 23 Sudeste 32 Sudeste 0 -- -- 27
2019-08-17 14:00:00 35.4 20 Sudeste 28 Sudeste 0 -- -- 26
2019-08-17 13:00:00 34.7 16 Sudeste 30 Sur 0 -- -- 25
2019-08-17 12:00:00 33 14 Sudeste 20 Sur 0 -- -- 26
2019-08-17 11:00:00 30.4 12 Sudeste 17 Este 0 -- -- 27
2019-08-17 10:00:00 24.6 0 Calma 5 Este 0 -- -- 51
2019-08-17 09:00:00 19.9 0 Calma 4 Norte 0 -- -- 69
2019-08-17 08:00:00 15.4 3 Norte 4 Nordeste 0 -- -- 81
2019-08-17 07:00:00 15.9 2 Nordeste 6 Norte 0 -- -- 71
2019-08-17 06:00:00 18.4 2 Sur 13 Sur 0 -- -- 66
2019-08-17 05:00:00 18.4 8 Sur 13 Sudeste 0 -- -- 67
2019-08-17 04:00:00 19.6 6 Sudeste 18 Sudeste 0 -- -- 70
2019-08-17 03:00:00 19.6 12 Sudeste 16 Sudeste 0 -- -- 69
2019-08-17 02:00:00 20.4 12 Sudeste 15 Sudeste 0 -- -- 78
2019-08-17 01:00:00 20.9 13 Sudeste 14 Sudeste 0 -- -- 77
2019-08-17 00:00:00 21.3 0 Calma 11 Sur 0 -- -- 75
2019-08-16 23:00:00 22.8 9 Sur 18 Sur 0 -- -- 64
2019-08-16 22:00:00 23.9 13 Sudeste 26 Sudeste 0 -- -- 63
2019-08-16 21:00:00 25.6 21 Sudeste 33 Sudeste 0 -- -- 54
2019-08-16 20:00:00 27.9 23 Sudeste 35 Sudeste 0 -- -- 41
2019-08-16 19:00:00 29.8 26 Sudeste 36 Sudeste 0 -- -- 36
2019-08-16 18:00:00 31 28 Sudeste 37 Sudeste 0 -- -- 36
2019-08-16 17:00:00 32.1 24 Sudeste 37 Sudeste 0 -- -- 34
2019-08-16 16:00:00 32.3 24 Sudeste 37 Sudeste 0 -- -- 36
2019-08-16 15:00:00 32.5 20 Sur 34 Sudeste 0 -- -- 35
2019-08-16 14:00:00 31.9 20 Sur 33 Sur 0 -- -- 32
2019-08-16 13:00:00 30.8 21 Sur 29 Sur 0 -- -- 30
2019-08-16 12:00:00 29.9 19 Sudeste 27 Sudeste 0 -- -- 26
2019-08-16 11:00:00 27.4 12 Sur 20 Sudeste 0 -- -- 36
2019-08-16 10:00:00 23.1 0 Calma -- -- 0 -- -- 57
2019-08-16 09:00:00 18.2 0 Calma -- -- 0 -- -- 77
2019-08-16 08:00:00 13.3 0 Calma -- -- 0 -- -- 86
2019-08-16 07:00:00 12.7 0 Calma -- -- 0 -- -- 80
2019-08-16 06:00:00 13.7 0 Calma 6 Sudeste 0 -- -- 83
2019-08-16 05:00:00 14.4 3 Sudeste 6 Sudeste 0 -- -- 80
2019-08-16 04:00:00 15.4 2 Este 6 Sudoeste 0 -- -- 79
2019-08-16 03:00:00 16 3 Oeste 3 Oeste 0 -- -- 74
2019-08-16 02:00:00 17.6 0 Calma 6 Nordeste 0 -- -- 74
2019-08-16 01:00:00 19 4 Este 7 Sudeste 0 -- -- 70
2019-08-16 00:00:00 21.1 5 Sur 14 Sudeste 0 -- -- 68
2019-08-15 23:00:00 22.6 11 Sudeste 20 Sudeste 0 -- -- 64
2019-08-15 22:00:00 24 10 Sur 24 Sur 0 -- -- 60
2019-08-15 21:00:00 25.4 19 Sur 33 Sudeste 0 -- -- 53
2019-08-15 20:00:00 27.3 26 Sur 37 Sudeste 0 -- -- 46
2019-08-15 19:00:00 28.9 30 Sudeste 39 Sudeste 0 -- -- 43
2019-08-15 18:00:00 30.3 32 Sudeste 41 Sudeste 0 -- -- 41
2019-08-15 17:00:00 32 30 Sudeste 40 Sudeste 0 -- -- 33
2019-08-15 16:00:00 32.7 30 Sudeste 42 Sudeste 0 -- -- 32
2019-08-15 15:00:00 33.2 24 Sudeste 35 Sudeste 0 -- -- 34
2019-08-15 14:00:00 32.7 22 Sudeste 32 Sudeste 0 -- -- 34
2019-08-15 13:00:00 31.3 15 Sur 27 Sudeste 0 -- -- 37
2019-08-15 12:00:00 29.7 15 Sur 23 Sudeste 0 -- -- 42
2019-08-15 11:00:00 28.1 14 Sur 23 Sudeste 0 -- -- 45
2019-08-15 10:00:00 23.7 3 Sudoeste 6 Sur 0 -- -- 69
2019-08-15 09:00:00 19.1 3 Sudoeste 5 Norte 0 -- -- 87
2019-08-15 08:00:00 15.7 3 Norte 5 Norte 0 -- -- 92
2019-08-15 07:00:00 16.5 3 Sudoeste 14 Sudeste 0 -- -- 91
2019-08-15 06:00:00 16.1 6 Sur 9 Sur 0 -- -- 89
2019-08-15 05:00:00 16.9 2 Sudoeste 5 Sudeste 0 -- -- 86
2019-08-15 04:00:00 18.5 4 Sudeste 10 Sudeste 0 -- -- 86
2019-08-15 03:00:00 19.5 4 Sur 10 Sudeste 0 -- -- 86
2019-08-15 02:00:00 19.8 7 Sudeste 12 Sudeste 0 -- -- 83
2019-08-15 01:00:00 20.8 3 Sur 10 Sudeste 0 -- -- 81
2019-08-15 00:00:00 21.6 11 Sudeste 15 Sur 0 -- -- 79
2019-08-14 23:00:00 22.9 11 Sur 19 Sur 0 -- -- 73
2019-08-14 22:00:00 23.4 14 Sudeste 29 Sudeste 0 -- -- 72
2019-08-14 21:00:00 24.6 23 Sudeste 36 Sudeste 0 -- -- 68
2019-08-14 20:00:00 26.5 27 Sudeste 40 Sudeste 0 -- -- 62
2019-08-14 19:00:00 28.2 27 Sudeste 39 Sudeste 0 -- -- 57
2019-08-14 18:00:00 29.4 28 Sudeste 40 Sudeste 0 -- -- 53
2019-08-14 17:00:00 30.9 24 Sudeste 36 Sudeste 0 -- -- 48
2019-08-14 16:00:00 31.5 25 Sudeste 38 Sudeste 0 -- -- 46
2019-08-14 15:00:00 31.3 21 Sudeste 38 Sudeste 0 -- -- 42
2019-08-14 14:00:00 30.9 15 Sur 27 Sudeste 0 -- -- 45
2019-08-14 13:00:00 29.3 17 Sudeste 27 Sudeste 0 -- -- 49
2019-08-14 12:00:00 27.8 16 Sudeste 26 Sur 0 -- -- 52
2019-08-14 11:00:00 25.3 5 Sudeste 13 Sur 0 -- -- 59
2019-08-14 10:00:00 22.1 3 Norte 6 Nordeste 0 -- -- 70
2019-08-14 09:00:00 17.9 3 Noroeste 6 Norte 0 -- -- 87
2019-08-14 08:00:00 14.1 0 Calma 4 Norte 0 -- -- 91
2019-08-14 07:00:00 14.1 0 Calma 2 Noroeste 0 -- -- 88
2019-08-14 06:00:00 15.1 0 Calma 4 Sudoeste 0 -- -- 87
2019-08-14 05:00:00 16 0 Calma 6 Sudeste 0 -- -- 88
2019-08-14 04:00:00 17.4 6 Sur 10 Sudeste 0 -- -- 84
2019-08-14 03:00:00 18 8 Sudeste 11 Sudeste 0 -- -- 84
2019-08-14 02:00:00 18.6 7 Sudeste 13 Sudeste 0 -- -- 81
2019-08-14 01:00:00 19.7 7 Sudeste 14 Sur 0 -- -- 79
2019-08-14 00:00:00 20.8 11 Sur 21 Sur 0 -- -- 78
2019-08-13 23:00:00 21.4 15 Sur 21 Sur 0 -- -- 75
2019-08-13 22:00:00 22 17 Sur 24 Sur 0 -- -- 71
2019-08-13 21:00:00 22.8 15 Sur 30 Sur 0 -- -- 65
2019-08-13 20:00:00 24.2 20 Sur 35 Sur 0 -- -- 61
2019-08-13 19:00:00 26 26 Sur 36 Sur 0 -- -- 55
2019-08-13 18:00:00 27.4 27 Sudeste 40 Sudeste 0 -- -- 51
2019-08-13 17:00:00 28.6 22 Sur 34 Sur 0 -- -- 48
2019-08-13 16:00:00 29.3 22 Sur 33 Sudeste 0 -- -- 47
2019-08-13 15:00:00 28.6 22 Sudeste 34 Sur 0 -- -- 48
2019-08-13 14:00:00 27.3 19 Sur 30 Sur 0 -- -- 53
2019-08-13 13:00:00 26.8 9 Este 23 Nordeste 0 -- -- 51
2019-08-13 12:00:00 25.2 15 Nordeste 24 Nordeste 0 -- -- 59
2019-08-13 11:00:00 25 6 Nordeste 20 Norte 0 -- -- 57
2019-08-13 10:00:00 23.2 8 Nordeste 17 Norte 0 -- -- 68
2019-08-13 09:00:00 21.8 6 Norte 13 Norte 0 -- -- 74
2019-08-13 08:00:00 20.4 10 Nordeste 19 Nordeste 0 -- -- 78
2019-08-13 07:00:00 20.5 8 Nordeste 17 Nordeste 0 -- -- 72
2019-08-13 06:00:00 20.3 10 Nordeste 19 Nordeste 0 -- -- 75
2019-08-13 05:00:00 20.1 12 Nordeste 22 Nordeste 0 -- -- 79
2019-08-13 04:00:00 19.8 6 Norte 18 Nordeste 0 -- -- 77
2019-08-13 03:00:00 20.8 11 Norte 17 Nordeste 0 -- -- 75
2019-08-13 02:00:00 21.4 6 Norte 12 Nordeste 0 -- -- 78
2019-08-13 01:00:00 21.7 7 Nordeste 14 Nordeste 0 -- -- 76
2019-08-13 00:00:00 21.6 13 Nordeste 18 Nordeste 0 -- -- 74
2019-08-12 23:00:00 22.3 5 Este 17 Nordeste 0 -- -- 73
2019-08-12 22:00:00 23.1 11 Nordeste 28 Norte 0 -- -- 69
2019-08-12 21:00:00 24.2 20 Nordeste 40 Nordeste 0 -- -- 66
2019-08-12 20:00:00 27.3 14 Este 40 Este 0 -- -- 55
2019-08-12 19:00:00 29.1 16 Sudeste 28 Nordeste 0 -- -- 48
2019-08-12 18:00:00 28.9 10 Sudeste 25 Sudeste 0 -- -- 46
2019-08-12 17:00:00 30.8 13 Sudeste 26 Sur 0 -- -- 40
2019-08-12 16:00:00 31.4 17 Sur 25 Sudeste 0 -- -- 39
2019-08-12 15:00:00 32 13 Norte 26 Nordeste 0 -- -- 37
2019-08-12 14:00:00 30.7 14 Norte 28 Nordeste 0 -- -- 38
2019-08-12 13:00:00 29.2 17 Nordeste 31 Nordeste 0 -- -- 42
2019-08-12 12:00:00 29.1 14 Nordeste 26 Nordeste 0 -- -- 38
2019-08-12 11:00:00 27.5 12 Noroeste 22 Noroeste 0 -- -- 28
2019-08-12 10:00:00 24.7 11 Noroeste 27 Noroeste 0 -- -- 30
2019-08-12 09:00:00 22.3 18 Oeste 28 Oeste 0 -- -- 32
2019-08-12 08:00:00 20.2 14 Noroeste 25 Oeste 0 -- -- 35
2019-08-12 07:00:00 20.4 13 Noroeste 27 Oeste 0 -- -- 34
2019-08-12 06:00:00 21 15 Oeste 26 Oeste 0 -- -- 34
2019-08-12 05:00:00 21.8 13 Noroeste 22 Noroeste 0 -- -- 33
2019-08-12 04:00:00 22.6 12 Noroeste 22 Noroeste 0 -- -- 29
2019-08-12 03:00:00 22.3 13 Noroeste 21 Oeste 0 -- -- 32
2019-08-12 02:00:00 21.9 11 Noroeste 15 Noroeste 0 -- -- 42
2019-08-12 01:00:00 23.4 8 Sudeste 15 Sudeste 0 -- -- 87
2019-08-12 00:00:00 24.4 11 Sudeste 15 Sudeste 0 -- -- 83
2019-08-11 23:00:00 25.7 12 Este 16 Sudeste 0 -- -- 77
2019-08-11 22:00:00 26.5 11 Sudeste 18 Sudeste 0 -- -- 72
2019-08-11 21:00:00 27.9 15 Sudeste 21 Sudeste 0 -- -- 67
2019-08-11 20:00:00 29.9 15 Sudeste 20 Sudeste 0 -- -- 60
2019-08-11 19:00:00 31.2 17 Sur 28 Sur 0 -- -- 57
2019-08-11 18:00:00 32.1 19 Sur 31 Sur 0 -- -- 55
2019-08-11 17:00:00 32.9 23 Sur 36 Sudeste 0 -- -- 52
2019-08-11 16:00:00 33.9 26 Sudeste 37 Sudeste 0 -- -- 49
2019-08-11 15:00:00 36 16 Sudeste 30 Sur 0 -- -- 40
2019-08-11 14:00:00 35.4 10 Oeste 22 Oeste 0 -- -- 27
2019-08-11 13:00:00 32.5 12 Este 21 Este 0 -- -- 34
2019-08-11 12:00:00 30.5 8 Norte 22 Norte 0 -- -- 45
2019-08-11 11:00:00 28.4 10 Norte 17 Norte 0 -- -- 57
2019-08-11 10:00:00 26.1 4 Norte 10 Nordeste 0 -- -- 71
2019-08-11 09:00:00 22.9 5 Sudeste 14 Oeste 0 -- -- 79
2019-08-11 08:00:00 21.2 8 Oeste 14 Noroeste 0 -- -- 87
2019-08-11 07:00:00 19.9 6 Noroeste 10 Noroeste 0 -- -- 87
2019-08-11 06:00:00 19.1 5 Oeste 8 Oeste 0 -- -- 86
2019-08-11 05:00:00 19.2 4 Norte 9 Norte 0 -- -- 86
2019-08-11 04:00:00 19.3 5 Noroeste 8 Noroeste 0 -- -- 81
2019-08-11 03:00:00 20.1 2 Sudoeste 5 Noroeste 0 -- -- 77
2019-08-11 02:00:00 21.6 2 Oeste 12 Sudeste 0 -- -- 76
2019-08-11 01:00:00 23.1 10 Sudeste 13 Sudeste 0 -- -- 71
2019-08-11 00:00:00 24.5 10 Sudeste 13 Este 0 -- -- 69
2019-08-10 23:00:00 26 7 Sudeste 20 Sudoeste 0 -- -- 64
2019-08-10 22:00:00 27.3 17 Sur 22 Sur 0 -- -- 58
2019-08-10 21:00:00 28.9 14 Sur 28 Sur 0 -- -- 51
2019-08-10 20:00:00 30.9 18 Sur 31 Sur 0 -- -- 43
2019-08-10 19:00:00 32.5 25 Sur 35 Sur 0 -- -- 40
2019-08-10 18:00:00 34.2 26 Sur 36 Sudeste 0 -- -- 37
2019-08-10 17:00:00 35.7 24 Sudeste 33 Sudeste 0 -- -- 34
2019-08-10 16:00:00 36.6 24 Sur 35 Sur 0 -- -- 32
2019-08-10 15:00:00 37.2 22 Sur 32 Sur 0 -- -- 31
2019-08-10 14:00:00 36.3 10 Noroeste 24 Oeste 0 -- -- 27
2019-08-10 13:00:00 35 8 Noroeste 19 Noroeste 0 -- -- 32
2019-08-10 12:00:00 33 10 Noroeste 22 Noroeste 0 -- -- 38
2019-08-10 11:00:00 30.4 10 Norte 20 Noroeste 0 -- -- 45
2019-08-10 10:00:00 27.8 11 Noroeste 22 Oeste 0 -- -- 50
2019-08-10 09:00:00 23.5 9 Norte 15 Norte 0 -- -- 56
2019-08-10 08:00:00 20.1 9 Norte 13 Norte 0 -- -- 59
2019-08-10 07:00:00 19.8 9 Norte 13 Norte 0 -- -- 58
2019-08-10 06:00:00 20.2 6 Norte 14 Norte 0 -- -- 54
2019-08-10 05:00:00 21.7 9 Norte 17 Noroeste 0 -- -- 53
2019-08-10 04:00:00 23.6 9 Norte 17 Norte 0 -- -- 47
2019-08-10 03:00:00 21.3 5 Norte 12 Norte 0 -- -- 49
2019-08-10 02:00:00 22.1 8 Norte 10 Norte 0 -- -- 48
2019-08-10 01:00:00 22.2 6 Norte 12 Noroeste 0 -- -- 47
2019-08-10 00:00:00 23.6 8 Noroeste 10 Noroeste 0 -- -- 45
2019-08-09 23:00:00 26.1 3 Sudoeste 14 Sudeste 0 -- -- 38
2019-08-09 22:00:00 29.3 8 Sudeste 17 Sur 0 -- -- 30
2019-08-09 21:00:00 32.6 14 Sur 23 Sudeste 0 -- -- 26
2019-08-09 20:00:00 35.3 16 Sudeste 28 Sudeste 0 -- -- 25
2019-08-09 19:00:00 37 22 Sudeste 36 Sudeste 0 -- -- 24
2019-08-09 18:00:00 38.4 28 Sudeste 41 Sudeste 0 -- -- 23
2019-08-09 17:00:00 39.6 12 Noroeste 24 Noroeste 0 -- -- 17
2019-08-09 16:00:00 39.3 8 Noroeste 25 Noroeste 0 -- -- 18
2019-08-09 15:00:00 38.3 12 Noroeste 39 Oeste 0 -- -- 19
2019-08-09 14:00:00 37.7 15 Noroeste 31 Oeste 0 -- -- 21
2019-08-09 13:00:00 35.6 14 Noroeste 29 Noroeste 0 -- -- 26
2019-08-09 12:00:00 34.4 12 Noroeste 24 Noroeste 0 -- -- 27
2019-08-09 11:00:00 31.3 12 Noroeste 20 Noroeste 0 -- -- 33
2019-08-09 10:00:00 26.3 9 Norte 14 Noroeste 0 -- -- 45
2019-08-09 09:00:00 21.6 8 Noroeste 12 Noroeste 0 -- -- 60
2019-08-09 08:00:00 15.8 0 Calma 12 Norte 0 -- -- 78
2019-08-09 07:00:00 14.9 6 Norte 12 Norte 0 -- -- 80
2019-08-09 06:00:00 15.1 2 Norte 10 Noroeste 0 -- -- 76
2019-08-09 05:00:00 16.2 3 Oeste 4 Norte 0 -- -- 79
2019-08-09 04:00:00 17 3 Norte 8 Noroeste 0 -- -- 65
2019-08-09 03:00:00 18.4 5 Noroeste 8 Noroeste 0 -- -- 71
2019-08-09 02:00:00 21.6 4 Sur 18 Sudeste 0 -- -- 62
2019-08-09 01:00:00 23.1 14 Sudeste 19 Sudeste 0 -- -- 52
2019-08-09 00:00:00 23.9 10 Sudeste 20 Sudeste 0 -- -- 53
2019-08-08 23:00:00 25 16 Sudeste 21 Sudeste 0 -- -- 52
2019-08-08 22:00:00 26.9 16 Sur 29 Sudeste 0 -- -- 47
2019-08-08 21:00:00 28.7 21 Sudeste 35 Sudeste 0 -- -- 39
2019-08-08 20:00:00 30.7 27 Sudeste 37 Sudeste 0 -- -- 37
2019-08-08 19:00:00 32.4 27 Sudeste 43 Sudeste 0 -- -- 37
2019-08-08 18:00:00 34.7 29 Sudeste 41 Sudeste 0 -- -- 33
2019-08-08 17:00:00 37.8 21 Sur 31 Sur 0 -- -- 26
2019-08-08 16:00:00 37.9 18 Sudoeste 27 Sur 0 -- -- 23
2019-08-08 15:00:00 37.7 9 Sudoeste 26 Oeste 0 -- -- 21
2019-08-08 14:00:00 36.3 9 Noroeste 26 Oeste 0 -- -- 24
2019-08-08 13:00:00 34.6 6 Noroeste 19 Nordeste 0 -- -- 28
2019-08-08 12:00:00 31.6 8 Norte 17 Norte 0 -- -- 32
2019-08-08 11:00:00 30.1 9 Norte 16 Norte 0 -- -- 33
2019-08-08 10:00:00 26.5 8 Norte 13 Noroeste 0 -- -- 43
2019-08-08 09:00:00 21.9 9 Norte 13 Norte 0 -- -- 53
2019-08-08 08:00:00 18.8 10 Noroeste 12 Noroeste 0 -- -- 61
2019-08-08 07:00:00 18.4 8 Norte 14 Noroeste 0 -- -- 59
2019-08-08 06:00:00 19.5 8 Noroeste 15 Noroeste 0 -- -- 57
2019-08-08 05:00:00 20.1 8 Norte 13 Noroeste 0 -- -- 55
2019-08-08 04:00:00 21.1 10 Norte 12 Norte 0 -- -- 54
2019-08-08 03:00:00 21.5 3 Nordeste 9 Norte 0 -- -- 50
2019-08-08 02:00:00 22.5 4 Sudoeste 12 Sur 0 -- -- 49
2019-08-08 01:00:00 24.3 8 Sur 15 Sudeste 0 -- -- 43
2019-08-08 00:00:00 24.8 12 Sudeste 16 Sudeste 0 -- -- 42
2019-08-07 23:00:00 26 10 Sudeste 13 Sudeste 0 -- -- 40
2019-08-07 22:00:00 28.1 11 Sudeste 19 Sudeste 0 -- -- 36
2019-08-07 21:00:00 30 15 Sudeste 23 Sudeste 0 -- -- 35
2019-08-07 20:00:00 32.4 18 Sudeste 26 Sudeste 0 -- -- 33
2019-08-07 19:00:00 32.6 18 Sudeste 24 Sudeste 0 -- -- 39
2019-08-07 18:00:00 35.7 17 Sur 24 Sudeste 0 -- -- 30
2019-08-07 17:00:00 38.3 11 Oeste 24 Oeste 0 -- -- 17
2019-08-07 16:00:00 37.6 11 Oeste 29 Oeste 0 -- -- 19
2019-08-07 15:00:00 35.8 12 Noroeste 28 Noroeste 0 -- -- 21
2019-08-07 14:00:00 35.7 15 Noroeste 31 Oeste 0 -- -- 22
2019-08-07 13:00:00 34.8 17 Noroeste 37 Oeste 0 -- -- 24
2019-08-07 12:00:00 32.7 10 Noroeste 22 Noroeste 0 -- -- 27
2019-08-07 11:00:00 31 4 Norte 13 Norte 0 -- -- 28
2019-08-07 10:00:00 26 4 Norte 9 Noroeste 0 -- -- 45
2019-08-07 09:00:00 21.1 5 Noroeste 9 Norte 0 -- -- 70
2019-08-07 08:00:00 17.6 5 Norte 10 Noroeste 0 -- -- 80
2019-08-07 07:00:00 16.3 6 Noroeste 9 Noroeste 0 -- -- 80
2019-08-07 06:00:00 17.6 5 Norte 9 Este 0 -- -- 80
2019-08-07 05:00:00 18.9 4 Este 10 Norte 0 -- -- 74
2019-08-07 04:00:00 20.4 9 Noroeste 11 Noroeste 0 -- -- 80
2019-08-07 03:00:00 22.1 2 Sur 9 Sur 0 -- -- 69
2019-08-07 02:00:00 23.8 0 Calma 20 Sudeste 0 -- -- 73
2019-08-07 01:00:00 24.7 14 Sudeste 21 Sudeste 0 -- -- 64
2019-08-07 00:00:00 25.9 15 Sudeste 24 Sudeste 0 -- -- 56
2019-08-06 23:00:00 27.3 19 Sur 28 Sur 0 -- -- 49
2019-08-06 22:00:00 27.5 20 Sudeste 27 Sudeste 0 -- -- 56
2019-08-06 21:00:00 29.6 18 Sudeste 26 Sudeste 0 -- -- 45
2019-08-06 20:00:00 32.2 18 Sudeste 30 Sur 0 -- -- 42
2019-08-06 19:00:00 34.2 22 Sudeste 35 Sudeste 0 -- -- 40
2019-08-06 18:00:00 35.4 24 Sudeste 37 Sudeste 0 -- -- 37
2019-08-06 17:00:00 35.8 25 Sudeste 35 Sudeste 0 -- -- 41
2019-08-06 16:00:00 37.9 22 Sur 33 Sur 0 -- -- 32
2019-08-06 15:00:00 37.5 15 Sudoeste 40 Noroeste 0 -- -- 25
2019-08-06 14:00:00 36 19 Este 30 Sudeste 0 -- -- 32
2019-08-06 13:00:00 34.9 7 Este 19 Sudeste 0 -- -- 30
2019-08-06 12:00:00 32.9 9 Sur 21 Sur 0 -- -- 38
2019-08-06 11:00:00 30 8 Sudeste 14 Sudeste 0 -- -- 48
2019-08-06 10:00:00 25.7 2 Sudeste 6 Nordeste 0 -- -- 69
2019-08-06 09:00:00 21.3 2 Norte 7 Norte 0 -- -- 94
2019-08-06 08:00:00 18.3 4 Norte 8 Noroeste 0 -- -- 94
2019-08-06 07:00:00 17.7 4 Norte 8 Noroeste 0 -- -- 91
2019-08-06 06:00:00 18.7 5 Noroeste 7 Sudoeste 0 -- -- 90
2019-08-06 05:00:00 20.1 6 Sur 10 Sudeste 0 -- -- 88
2019-08-06 04:00:00 20.8 6 Sudeste 11 Sur 0 -- -- 86
2019-08-06 03:00:00 20.9 4 Este 9 Sudeste 0 -- -- 88
2019-08-06 02:00:00 21.6 8 Sudeste 10 Sudeste 0 -- -- 87
2019-08-06 01:00:00 22.5 8 Sudeste 14 Sudeste 0 -- -- 84
2019-08-06 00:00:00 23.6 11 Sur 18 Sur 0 -- -- 79
2019-08-05 23:00:00 24.2 14 Sudeste 24 Sudeste 0 -- -- 77
2019-08-05 22:00:00 25.2 10 Sudeste 20 Sudeste 0 -- -- 71
2019-08-05 21:00:00 26.9 12 Sudeste 30 Sudoeste 0 -- -- 64
2019-08-05 20:00:00 28.5 17 Sur 36 Sudeste 0 -- -- 59
2019-08-05 19:00:00 29.9 25 Sur 36 Sudeste 0 -- -- 55
2019-08-05 18:00:00 32.3 25 Sur 36 Sur 0 -- -- 49
2019-08-05 17:00:00 33.8 24 Sur 30 Sur 0 -- -- 46
2019-08-05 16:00:00 35 21 Sur 36 Sudeste 0 -- -- 41
2019-08-05 15:00:00 35.3 21 Sudeste 33 Sudeste 0 -- -- 36
2019-08-05 14:00:00 35.2 12 Sudeste 25 Este 0 -- -- 36
2019-08-05 13:00:00 32.9 8 Sudeste 20 Sudeste 0 -- -- 39
2019-08-05 12:00:00 30.5 12 Sudeste 20 Sudeste 0 -- -- 51
2019-08-05 11:00:00 27.8 10 Sudeste 18 Sudeste 0 -- -- 59
2019-08-05 10:00:00 25.4 12 Sudeste 22 Sudeste 0 -- -- 69
2019-08-05 09:00:00 22.5 16 Sudeste 22 Sudeste 0 -- -- 84
2019-08-05 08:00:00 17.6 3 Sudeste 7 Sudoeste 0 -- -- 90
2019-08-05 07:00:00 17.7 0 Calma 8 Norte 0 -- -- 92
2019-08-05 06:00:00 18.5 6 Norte 9 Norte 0 -- -- 92
2019-08-05 05:00:00 19 5 Norte 8 Norte 0 -- -- 92
2019-08-05 04:00:00 19.6 2 Norte 10 Noroeste 0 -- -- 91
2019-08-05 03:00:00 20.5 5 Noroeste 8 Oeste 0 -- -- 90
2019-08-05 02:00:00 21.7 10 Sudeste 15 Sudeste 0 -- -- 88
2019-08-05 01:00:00 22.4 12 Sudeste 16 Sudeste 0 -- -- 84
2019-08-05 00:00:00 23.2 10 Sudeste 19 Sudeste 0 -- -- 79
2019-08-04 23:00:00 24.1 11 Sudeste 16 Sur 0 -- -- 75
2019-08-04 22:00:00 25.5 11 Sudeste 22 Sudeste 0 -- -- 69
2019-08-04 21:00:00 27.5 15 Sudeste 32 Sur 0 -- -- 58
2019-08-04 20:00:00 29.7 24 Sur 32 Sur 0 -- -- 51
2019-08-04 19:00:00 32.1 24 Sudeste 35 Sur 0 -- -- 44
2019-08-04 18:00:00 34.2 24 Sur 32 Sur 0 -- -- 38
2019-08-04 17:00:00 35.7 16 Sur 26 Sudeste 0 -- -- 31
2019-08-04 16:00:00 35.5 15 Sur 29 Sur 0 -- -- 32
2019-08-04 15:00:00 34.4 8 Sudeste 24 Sur 0 -- -- 33
2019-08-04 14:00:00 32.6 14 Sur 26 Sur 0 -- -- 36
2019-08-04 13:00:00 31.2 17 Sur 28 Sur 0 -- -- 41
2019-08-04 12:00:00 29.7 21 Sudeste 28 Sur 0 -- -- 45
2019-08-04 11:00:00 28.8 18 Sudeste 26 Sudeste 0 -- -- 45
2019-08-04 10:00:00 25.7 5 Sudoeste 11 Noroeste 0 -- -- 55
2019-08-04 09:00:00 21.7 9 Noroeste 13 Noroeste 0 -- -- 69
2019-08-04 08:00:00 16.5 4 Oeste 6 Sudoeste 0 -- -- 84
2019-08-04 07:00:00 15.9 5 Noroeste 7 Noroeste 0 -- -- 86
2019-08-04 06:00:00 16.1 3 Oeste 5 Oeste 0 -- -- 83
2019-08-04 05:00:00 17.1 0 Calma 8 Oeste 0 -- -- 83
2019-08-04 04:00:00 18.2 4 Sudoeste 8 Sudeste 0 -- -- 85
2019-08-04 03:00:00 19.7 5 Sudeste 16 Sudeste 0 -- -- 83
2019-08-04 02:00:00 20.4 11 Sudeste 15 Sudeste 0 -- -- 81
2019-08-04 01:00:00 20.9 12 Sudeste 19 Sudeste 0 -- -- 74
2019-08-04 00:00:00 21.4 7 Sudeste 15 Sudeste 0 -- -- 70
2019-08-03 23:00:00 22.4 10 Sudeste 20 Sur 0 -- -- 66
2019-08-03 22:00:00 24 13 Sur 23 Sur 0 -- -- 65
2019-08-03 21:00:00 25.7 17 Sur 29 Sudeste 0 -- -- 63
2019-08-03 20:00:00 27 21 Sudeste 27 Sudeste 0 -- -- 58
2019-08-03 19:00:00 29.4 18 Sur 26 Sur 0 -- -- 51
2019-08-03 18:00:00 32 18 Sur 31 Sur 0 -- -- 43
2019-08-03 17:00:00 32.7 18 Sur 32 Sudeste 0 -- -- 39
2019-08-03 16:00:00 32.5 21 Sur 41 Sur 0 -- -- 38
2019-08-03 15:00:00 32.3 21 Sur 33 Sur 0 -- -- 37
2019-08-03 14:00:00 32.2 15 Sur 28 Sur 0 -- -- 37
2019-08-03 13:00:00 30.9 13 Sur 26 Sur 0 -- -- 41
2019-08-03 12:00:00 28.9 9 Sur 20 Sur 0 -- -- 50
2019-08-03 11:00:00 27.1 7 Sur 19 Sur 0 -- -- 55
2019-08-03 10:00:00 24.5 8 Sur 15 Sudoeste 0 -- -- 72
2019-08-03 09:00:00 21.8 3 Sudoeste 8 Oeste 0 -- -- 84
2019-08-03 08:00:00 18.7 3 Noroeste 8 Norte 0 -- -- 92
2019-08-03 07:00:00 18.4 2 Nordeste 7 Oeste 0 -- -- 89
2019-08-03 06:00:00 19.2 6 Oeste 10 Noroeste 0 -- -- 89
2019-08-03 05:00:00 19.8 5 Oeste 6 Oeste 0 -- -- 88
2019-08-03 04:00:00 21.5 4 Oeste 8 Oeste 0 -- -- 84
2019-08-03 03:00:00 22.2 6 Sudoeste 12 Sudoeste 0 -- -- 83
2019-08-03 02:00:00 22.7 8 Sur 14 Sur 0 -- -- 82
2019-08-03 01:00:00 22.7 12 Sur 20 Sur 0 -- -- 83
2019-08-03 00:00:00 22.9 11 Sudeste 25 Sudeste 0 -- -- 85
2019-08-02 23:00:00 24.2 18 Sudeste 24 Sudeste 0 -- -- 77
2019-08-02 22:00:00 26.6 10 Sudeste 14 Este 0 -- -- 64
2019-08-02 21:00:00 28.5 9 Sudeste 15 Sudeste 0 -- -- 58
2019-08-02 20:00:00 30 10 Sudeste 21 Sudeste 0 -- -- 55
2019-08-02 19:00:00 30.5 14 Sudeste 36 Sudeste 0 -- -- 54
2019-08-02 18:00:00 30.6 23 Sur 36 Sur 0 -- -- 53
2019-08-02 17:00:00 31.5 19 Sudeste 32 Sudeste 0 -- -- 51
2019-08-02 16:00:00 31.8 18 Sudeste 32 Sudeste 0 -- -- 50
2019-08-02 15:00:00 31.8 21 Sudeste 32 Sudeste 0 -- -- 51
2019-08-02 14:00:00 31.2 21 Sudeste 33 Sudeste 0 -- -- 50
2019-08-02 13:00:00 31.5 14 Sudeste 26 Sudeste 0 -- -- 48
2019-08-02 12:00:00 30.2 5 Sur 13 Sur 0 -- -- 47
2019-08-02 11:00:00 27.5 3 Noroeste 17 Noroeste 0 -- -- 53
2019-08-02 10:00:00 25.1 8 Noroeste 16 Noroeste 0 -- -- 61
2019-08-02 09:00:00 22.4 9 Noroeste 20 Noroeste 0 -- -- 74
2019-08-02 08:00:00 19.3 12 Noroeste 19 Noroeste 0 -- -- 89
2019-08-02 07:00:00 18.1 10 Noroeste 15 Noroeste 0 -- -- 93
2019-08-02 06:00:00 18.1 3 Norte 9 Noroeste 0 -- -- 93
2019-08-02 05:00:00 18.4 6 Noroeste 10 Noroeste 0 -- -- 93
2019-08-02 04:00:00 18.8 5 Noroeste 8 Noroeste 0 -- -- 91
2019-08-02 03:00:00 19.8 0 Calma 6 Sudeste 0 -- -- 88
2019-08-02 02:00:00 21.2 6 Sudeste 13 Sudeste 0 -- -- 87
2019-08-02 01:00:00 21.5 11 Sudeste 15 Sudeste 0 -- -- 86
2019-08-02 00:00:00 22.1 5 Sudeste 18 Sudeste 0 -- -- 81
2019-08-01 23:00:00 22.7 14 Sudeste 29 Sudeste 0 -- -- 80
2019-08-01 22:00:00 23.5 21 Sudeste 31 Sudeste 0 -- -- 76
2019-08-01 21:00:00 25.7 20 Sudeste 35 Sudeste 0 -- -- 69
2019-08-01 20:00:00 29.8 21 Sudeste 28 Sudeste 0 -- -- 54
2019-08-01 19:00:00 32 19 Sudeste 29 Este 0 -- -- 44
2019-08-01 18:00:00 34.2 18 Este 32 Sudeste 0 -- -- 36
2019-08-01 17:00:00 34.3 8 Nordeste 17 Norte 0 -- -- 35
2019-08-01 16:00:00 33 7 Noroeste 23 Sudeste 0 -- -- 35
2019-08-01 15:00:00 31.4 20 Sudeste 40 Sudeste 0 -- -- 40
2019-08-01 14:00:00 32.3 5 Noroeste 15 Sudoeste 0 -- -- 35
2019-08-01 13:00:00 30.2 4 Sudoeste 17 Noroeste 0 -- -- 44
2019-08-01 12:00:00 28 9 Noroeste 19 Noroeste 0 -- -- 53
2019-08-01 11:00:00 26 10 Norte 19 Norte 0 -- -- 59
2019-08-01 10:00:00 23.4 11 Noroeste 20 Noroeste 0 -- -- 71
2019-08-01 09:00:00 21.2 10 Noroeste 16 Oeste 0 -- -- 81
2019-08-01 08:00:00 18.9 6 Noroeste 14 Noroeste 0 -- -- 91
2019-08-01 07:00:00 17.9 10 Oeste 15 Noroeste 0 -- -- 90
2019-08-01 06:00:00 18.4 8 Norte 15 Norte 0 -- -- 89
2019-08-01 05:00:00 18.9 9 Norte 19 Norte 0 -- -- 87
2019-08-01 04:00:00 19.2 12 Norte 22 Norte 0 -- -- 87
2019-08-01 03:00:00 19.3 6 Norte 15 Norte 0 -- -- 83
2019-08-01 02:00:00 19.8 13 Norte 33 Nordeste 0 -- -- 83
2019-08-01 01:00:00 20.1 19 Norte 31 Norte 0 -- -- 83
2019-08-01 00:00:00 20.4 11 Norte 19 Nordeste 0 -- -- 79
2019-07-31 23:00:00 21.2 8 Nordeste 27 Nordeste 0 -- -- 76
2019-07-31 22:00:00 22.2 18 Nordeste 39 Nordeste 0 -- -- 72
2019-07-31 21:00:00 23.3 23 Nordeste 40 Nordeste 0 -- -- 67
2019-07-31 20:00:00 25 25 Nordeste 40 Nordeste 0 -- -- 56
2019-07-31 19:00:00 26.1 29 Nordeste 44 Norte 0 -- -- 57
2019-07-31 18:00:00 27.2 26 Nordeste 42 Nordeste 0 -- -- 58
2019-07-31 17:00:00 26.5 18 Nordeste 32 Nordeste 0 -- -- 60
2019-07-31 16:00:00 26.9 7 Norte 27 Sur 0 -- -- 61
2019-07-31 15:00:00 25.6 14 Sur 26 Sudoeste 0 -- -- 66
2019-07-31 14:00:00 27.6 11 Sudeste 27 Sur 0 -- -- 57
2019-07-31 13:00:00 28.2 14 Sur 24 Sudeste 0 -- -- 47
2019-07-31 12:00:00 27.7 6 Este 26 Noroeste 0 -- -- 49
2019-07-31 11:00:00 26.6 14 Nordeste 28 Norte 0 -- -- 61
2019-07-31 10:00:00 24.9 12 Nordeste 26 Norte 0 -- -- 65
2019-07-31 09:00:00 22.6 10 Nordeste 21 Norte 0 -- -- 71
2019-07-31 08:00:00 20.9 15 Nordeste 33 Nordeste 0 -- -- 79
2019-07-31 07:00:00 19.2 9 Norte 23 Norte 0 -- -- 82
2019-07-31 06:00:00 18.4 3 Norte 10 Noroeste 0 -- -- 85
2019-07-31 05:00:00 18.6 8 Norte 12 Norte 0 -- -- 85
2019-07-31 04:00:00 19 4 Norte 6 Norte 0 -- -- 84
2019-07-31 03:00:00 20.4 0 Calma 14 Nordeste 0 -- -- 82
2019-07-31 02:00:00 21.7 10 Nordeste 15 Nordeste 0 -- -- 82
2019-07-31 01:00:00 22.7 11 Nordeste 24 Nordeste 0 -- -- 79
2019-07-31 00:00:00 23.1 15 Nordeste 26 Nordeste 0 -- -- 79
2019-07-30 23:00:00 23.9 3 Sudeste 7 Sur 0 -- -- 81
2019-07-30 22:00:00 24 3 Sudeste 17 Sur 0 -- -- 80
2019-07-30 21:00:00 24.7 11 Sur 23 Sur 0 -- -- 76
2019-07-30 20:00:00 26.4 16 Sur 29 Sur 0 -- -- 70
2019-07-30 19:00:00 28.2 18 Sur 28 Sur 0 -- -- 63
2019-07-30 18:00:00 30.2 18 Sur 29 Sur 0 -- -- 54
2019-07-30 17:00:00 30.9 19 Sur 34 Sur 0 -- -- 52
2019-07-30 16:00:00 32.1 20 Sur 30 Sudoeste 0 -- -- 47
2019-07-30 15:00:00 32.6 18 Sur 31 Sudeste 0 -- -- 42
2019-07-30 14:00:00 32.1 16 Nordeste 27 Norte 0 -- -- 40
2019-07-30 13:00:00 30.9 16 Norte 29 Norte 0 -- -- 42
2019-07-30 12:00:00 29.4 19 Norte 32 Norte 0 -- -- 48
2019-07-30 11:00:00 27.7 20 Nordeste 30 Nordeste 0 -- -- 53
2019-07-30 10:00:00 25.1 12 Noroeste 18 Noroeste 0 -- -- 43
2019-07-30 09:00:00 21.4 8 Norte 12 Norte 0 -- -- 62
2019-07-30 08:00:00 16.8 11 Norte 14 Norte 0 -- -- 74
2019-07-30 07:00:00 14.8 10 Norte 12 Norte 0 -- -- 84
2019-07-30 06:00:00 15.1 5 Sudoeste 9 Noroeste 0 -- -- 79
2019-07-30 05:00:00 15.4 4 Norte 6 Noroeste 0 -- -- 84
2019-07-30 04:00:00 16 0 Calma 6 Noroeste 0 -- -- 77
2019-07-30 03:00:00 17.4 4 Sudoeste 8 Noroeste 0 -- -- 70
2019-07-30 02:00:00 18.6 0 Calma 6 Sur 0 -- -- 74
2019-07-30 01:00:00 20.6 8 Sur 13 Sudeste 0 -- -- 66
2019-07-30 00:00:00 21.8 8 Sudeste 15 Sudeste 0 -- -- 60
2019-07-29 23:00:00 23 12 Sudeste 21 Sur 0 -- -- 56
2019-07-29 22:00:00 24.1 17 Sudeste 31 Sudeste 0 -- -- 53
2019-07-29 21:00:00 25.9 23 Sudeste 32 Sudeste 0 -- -- 48
2019-07-29 20:00:00 28.2 23 Sudeste 31 Sudeste 0 -- -- 42
2019-07-29 19:00:00 29.7 25 Sur 33 Sur 0 -- -- 41
2019-07-29 18:00:00 31 25 Sur 36 Sudeste 0 -- -- 39
2019-07-29 17:00:00 32 26 Sudeste 36 Sudeste 0 -- -- 38
2019-07-29 16:00:00 32.1 26 Sudeste 41 Sudeste 0 -- -- 39
2019-07-29 15:00:00 32.5 25 Sudeste 37 Sudeste 0 -- -- 37
2019-07-29 14:00:00 32.7 21 Sudeste 31 Sudeste 0 -- -- 34
2019-07-29 13:00:00 32 15 Sudeste 27 Sudeste 0 -- -- 35
2019-07-29 12:00:00 30.8 12 Sur 20 Sudeste 0 -- -- 35
2019-07-29 11:00:00 27.7 8 Sudeste 16 Sudeste 0 -- -- 44
2019-07-29 10:00:00 24.5 10 Sudeste 16 Sudeste 0 -- -- 59
2019-07-29 09:00:00 20.8 8 Sudeste 11 Sudeste 0 -- -- 75
2019-07-29 08:00:00 15.6 2 Sudeste 6 Este 0 -- -- 89
2019-07-29 07:00:00 14.5 2 Sudoeste 5 Noroeste 0 -- -- 90
2019-07-29 06:00:00 15.2 -- -- -- -- 0 -- -- 89
2019-07-29 05:00:00 16.2 5 Oeste 6 Oeste 0 -- -- 89
2019-07-29 04:00:00 17.1 2 Sudoeste 6 Oeste 0 -- -- 87
2019-07-29 03:00:00 18.4 3 Nordeste 12 Sur 0 -- -- 84
2019-07-29 02:00:00 19.5 7 Sur 12 Sur 0 -- -- 79
2019-07-29 01:00:00 20.2 10 Sudeste 14 Sudeste 0 -- -- 84
2019-07-29 00:00:00 21.2 9 Sudeste 14 Sur 0 -- -- 80
2019-07-28 23:00:00 22 10 Sur 21 Sur 0 -- -- 75
2019-07-28 22:00:00 22.8 18 Sur 31 Sudeste 0 -- -- 72
2019-07-28 21:00:00 23.8 24 Sudeste 39 Sudeste 0 -- -- 67
2019-07-28 20:00:00 25.4 27 Sudeste 41 Sudeste 0 -- -- 63
2019-07-28 19:00:00 26.7 28 Sudeste 45 Sudeste 0 -- -- 60
2019-07-28 18:00:00 27.4 31 Sudeste 48 Sudeste 0 -- -- 56
2019-07-28 17:00:00 28.6 32 Sudeste 49 Sudeste 0 -- -- 53
2019-07-28 16:00:00 30.4 26 Sudeste 41 Sur 0 -- -- 43
2019-07-28 15:00:00 30.9 9 Noroeste 25 Oeste 0 -- -- 30
2019-07-28 14:00:00 31.2 15 Oeste 27 Oeste 0 -- -- 30
2019-07-28 13:00:00 29.3 8 Nordeste 22 Noroeste 0 -- -- 32
2019-07-28 12:00:00 27.9 8 Noroeste 17 Noroeste 0 -- -- 35
2019-07-28 11:00:00 26.1 8 Noroeste 19 Norte 0 -- -- 42
2019-07-28 10:00:00 23.8 6 Norte 14 Norte 0 -- -- 50
2019-07-28 09:00:00 21.9 5 Este 10 Norte 0 -- -- 55
2019-07-28 08:00:00 19 3 Norte 15 Noroeste 0 -- -- 64
2019-07-28 07:00:00 18.1 10 Noroeste 18 Noroeste 0 -- -- 67
2019-07-28 06:00:00 18.9 3 Noroeste 21 Noroeste 0 -- -- 63
2019-07-28 05:00:00 19.6 10 Noroeste 24 Noroeste 0 -- -- 62
2019-07-28 04:00:00 21.2 14 Noroeste 24 Noroeste 0 -- -- 57
2019-07-28 03:00:00 21.4 11 Noroeste 24 Noroeste 0 -- -- 55
2019-07-28 02:00:00 22.5 19 Oeste 39 Oeste 0 -- -- 50
2019-07-28 01:00:00 22.9 17 Oeste 31 Oeste 0 -- -- 50
2019-07-28 00:00:00 24 22 Oeste 37 Oeste 0 -- -- 48
2019-07-27 23:00:00 25.3 24 Oeste 41 Noroeste 0 -- -- 46
2019-07-26 12:00:00 -- -- -- -- -- -- -- -- --
2019-07-26 11:00:00 28.3 2 Sudeste 12 Norte 0 -- -- 37
2019-07-26 10:00:00 24.3 4 Norte 9 Noroeste 0 -- -- 48
2019-07-26 09:00:00 20.8 3 Norte 5 Norte 0 -- -- 53
2019-07-26 08:00:00 16.1 4 Nordeste 8 Noroeste 0 -- -- 68
2019-07-26 07:00:00 14 4 Oeste 7 Oeste 0 -- -- 74
2019-07-26 06:00:00 14.8 0 Calma 6 Oeste 0 -- -- 72
2019-07-26 05:00:00 15.4 3 Noroeste 9 Noroeste 0 -- -- 66
2019-07-26 04:00:00 15.9 5 Oeste 7 Noroeste 0 -- -- 70
2019-07-26 03:00:00 17.3 3 Nordeste 6 Sudeste 0 -- -- 63
2019-07-26 02:00:00 19.6 0 Calma 12 Sudeste 0 -- -- 59
2019-07-26 01:00:00 21.9 8 Sudeste 25 Sudoeste 0 -- -- 51
2019-07-26 00:00:00 23.9 20 Sudoeste 27 Sudoeste 0 -- -- 48
2019-07-25 23:00:00 24.7 19 Sudoeste 27 Sudoeste 0 -- -- 48
2019-07-25 22:00:00 26.4 19 Sur 24 Sur 0 -- -- 42
2019-07-25 21:00:00 28.4 17 Sur 28 Sur 0 -- -- 35
2019-07-25 20:00:00 31 21 Sur 34 Sur 0 -- -- 30
2019-07-25 19:00:00 32.5 24 Sur 32 Sur 0 -- -- 28
2019-07-25 18:00:00 33.5 19 Sur 32 Sur 0 -- -- 27
2019-07-25 17:00:00 34.2 23 Sur 32 Sur 0 -- -- 25
2019-07-25 16:00:00 34.8 19 Sur 34 Sur 0 -- -- 25
2019-07-25 15:00:00 34.5 22 Sur 32 Sudeste 0 -- -- 25
2019-07-25 14:00:00 34.2 19 Sudeste 30 Sur 0 -- -- 28
2019-07-25 13:00:00 33.5 18 Sur 32 Sudeste 0 -- -- 27
2019-07-25 12:00:00 32.5 15 Sur 25 Sur 0 -- -- 29
2019-07-25 11:00:00 29.7 3 Sudoeste 7 Sur 0 -- -- 33
2019-07-25 10:00:00 24.6 4 Noroeste 10 Noroeste 0 -- -- 47
2019-07-25 09:00:00 19.8 3 Norte 9 Norte 0 -- -- 56
2019-07-25 08:00:00 15.1 0 Calma 7 Norte 0 -- -- 68
2019-07-25 07:00:00 12.9 3 Noroeste 4 Noroeste 0 -- -- 78
2019-07-25 06:00:00 13.4 0 Calma 4 Noroeste 0 -- -- 74
2019-07-25 05:00:00 13.8 0 Calma 4 Oeste 0 -- -- 73
2019-07-25 04:00:00 14.8 0 Calma 5 Nordeste 0 -- -- 71
2019-07-25 03:00:00 15.9 5 Norte 6 Norte 0 -- -- 65
2019-07-25 02:00:00 16.9 0 Calma 4 Nordeste 0 -- -- 56
2019-07-25 01:00:00 18.6 0 Calma 9 Sudeste 0 -- -- 59
2019-07-25 00:00:00 21.9 6 Sudeste 19 Sudeste 0 -- -- 43
2019-07-24 23:00:00 24.5 8 Sudeste 21 Sur 0 -- -- 38
2019-07-24 22:00:00 26.3 14 Sur 21 Sur 0 -- -- 36
2019-07-24 21:00:00 28.5 14 Sudoeste 27 Sur 0 -- -- 32
2019-07-24 20:00:00 30.9 19 Sur 32 Sur 0 -- -- 28
2019-07-24 19:00:00 32.4 25 Sur 36 Sur 0 -- -- 24
2019-07-24 18:00:00 33.5 27 Sur 40 Sur 0 -- -- 23
2019-07-24 17:00:00 34.9 23 Sur 35 Sur 0 -- -- 24
2019-07-24 16:00:00 35.2 22 Sur 38 Sur 0 -- -- 24
2019-07-24 15:00:00 35.4 27 Sudeste 37 Sudeste 0 -- -- 23
2019-07-24 14:00:00 35.8 26 Sur 38 Sudeste 0 -- -- 23
2019-07-24 13:00:00 35.1 14 Sudeste 27 Sudeste 0 -- -- 23
2019-07-24 12:00:00 33 9 Sur 22 Sur 0 -- -- 27
2019-07-24 11:00:00 29.7 3 Noroeste 9 Noroeste 0 -- -- 37
2019-07-24 10:00:00 25 6 Norte 13 Norte 0 -- -- 47
2019-07-24 09:00:00 20.7 2 Norte 5 Sudoeste 0 -- -- 61
2019-07-24 08:00:00 15.4 5 Oeste 8 Oeste 0 -- -- 67
2019-07-24 07:00:00 14.4 6 Oeste 7 Oeste 0 -- -- 70
2019-07-24 06:00:00 14.6 2 Oeste 5 Sudoeste 0 -- -- 69
2019-07-24 05:00:00 15.8 3 Oeste 5 Oeste 0 -- -- 65
2019-07-24 04:00:00 17.3 2 Sudeste 7 Oeste 0 -- -- 57
2019-07-24 03:00:00 18.4 4 Oeste 8 Sudoeste 0 -- -- 55
2019-07-24 02:00:00 18.4 3 Norte 6 Norte 0 -- -- 54
2019-07-24 01:00:00 18.8 2 Oeste 8 Sudeste 0 -- -- 51
2019-07-24 00:00:00 21.4 3 Noroeste 13 Sudeste 0 -- -- 44
2019-07-23 23:00:00 24.9 9 Sudeste 17 Sur 0 -- -- 32
2019-07-23 22:00:00 26 4 Sudoeste 22 Sur 0 -- -- 32
2019-07-23 21:00:00 29.9 17 Sur 27 Sur 0 -- -- 24
2019-07-23 20:00:00 32.9 17 Sur 28 Sudeste 0 -- -- 21
2019-07-23 19:00:00 34.3 20 Sur 31 Sur 0 -- -- 20
2019-07-23 18:00:00 35.3 23 Sur 37 Sur 0 -- -- 19
2019-07-23 17:00:00 35.8 27 Sur 40 Sur 0 -- -- 18
2019-07-23 16:00:00 36 28 Sur 38 Sur 0 -- -- 18
2019-07-23 15:00:00 36 26 Sur 41 Sur 0 -- -- 19
2019-07-23 14:00:00 35.8 26 Sudeste 36 Sudeste 0 -- -- 20
2019-07-23 13:00:00 34.9 19 Sur 33 Sudeste 0 -- -- 23
2019-07-23 12:00:00 31.5 5 Noroeste 16 Nordeste 0 -- -- 36
2019-07-23 11:00:00 28.5 5 Norte 15 Noroeste 0 -- -- 41
2019-07-23 10:00:00 25.3 6 Norte 12 Oeste 0 -- -- 52
2019-07-23 09:00:00 21.2 6 Norte 10 Noroeste 0 -- -- 64
2019-07-23 08:00:00 15.5 3 Oeste 6 Sudoeste 0 -- -- 76
2019-07-23 07:00:00 13.4 3 Oeste 5 Sudoeste 0 -- -- 76
2019-07-23 06:00:00 14.1 2 Noroeste 4 Noroeste 0 -- -- 71
2019-07-23 05:00:00 14.6 0 Calma 8 Noroeste 0 -- -- 72
2019-07-23 04:00:00 15.1 2 Oeste 4 Sudoeste 0 -- -- 71
2019-07-23 03:00:00 16.1 3 Sudoeste 5 Sudoeste 0 -- -- 56
2019-07-23 02:00:00 17.2 0 Calma 5 Sudoeste 0 -- -- 61
2019-07-23 01:00:00 18.4 2 Norte 6 Sudoeste 0 -- -- 59
2019-07-23 00:00:00 20.5 3 Nordeste 4 Nordeste 0 -- -- 49
2019-07-22 23:00:00 24.1 5 Sur 10 Sur 0 -- -- 40
2019-07-22 22:00:00 27.4 8 Sur 15 Sudoeste 0 -- -- 33
2019-07-22 21:00:00 30.2 11 Sur 19 Sur 0 -- -- 23
2019-07-22 20:00:00 32.9 14 Sur 26 Sur 0 -- -- 18
2019-07-22 19:00:00 34.3 17 Sur 28 Sur 0 -- -- 15
2019-07-22 18:00:00 34.9 18 Sur 39 Sur 0 -- -- 15
2019-07-22 17:00:00 34.8 26 Sur 42 Sur 0 -- -- 15
2019-07-22 16:00:00 35.4 30 Sur 41 Sur 0 -- -- 14
2019-07-22 15:00:00 35.4 27 Sur 39 Sur 0 -- -- 16
2019-07-22 14:00:00 35.3 22 Sur 34 Sur 0 -- -- 19
2019-07-22 13:00:00 33.8 21 Sur 28 Sur 0 -- -- 23
2019-07-22 12:00:00 31.6 12 Este 20 Nordeste 0 -- -- 32
2019-07-22 11:00:00 28.2 3 Sudoeste 14 Norte 0 -- -- 49
2019-07-22 10:00:00 25.4 10 Norte 21 Norte 0 -- -- 64
2019-07-22 09:00:00 23 12 Norte 23 Norte 0 -- -- 75
2019-07-22 08:00:00 20.7 11 Norte 18 Noroeste 0 -- -- 85
2019-07-22 07:00:00 20.3 9 Norte 18 Noroeste 0 -- -- 85
2019-07-22 06:00:00 20.5 10 Norte 20 Norte 0 -- -- 83
2019-07-22 05:00:00 20.5 8 Noroeste 19 Norte 0 -- -- 83
2019-07-22 04:00:00 20.6 10 Norte 21 Norte 0 -- -- 82
2019-07-22 03:00:00 19.2 7 Noroeste 10 Noroeste 0 -- -- 79
2019-07-22 02:00:00 20.2 8 Norte 10 Noroeste 0 -- -- 74
2019-07-22 01:00:00 21.4 0 Calma 10 Sudoeste 0 -- -- 71
2019-07-22 00:00:00 23.6 5 Sur 18 Sur 0 -- -- 64
2019-07-21 23:00:00 24.5 12 Sur 18 Sur 0 -- -- 64
2019-07-21 22:00:00 25.6 5 Noroeste 35 Nordeste 0 -- -- 51
2019-07-21 21:00:00 27.4 23 Nordeste 36 Nordeste 0 -- -- 46
2019-07-21 20:00:00 30.2 17 Nordeste 27 Nordeste 0 -- -- 43
2019-07-21 19:00:00 32 19 Nordeste 34 Nordeste 0 -- -- 33
2019-07-21 18:00:00 33.1 21 Nordeste 33 Nordeste 0 -- -- 34
2019-07-21 17:00:00 34.4 15 Sudeste 36 Nordeste 0 -- -- 26
2019-07-21 16:00:00 34 15 Nordeste 37 Nordeste 0 -- -- 35
2019-07-21 15:00:00 34 18 Nordeste 35 Norte 0 -- -- 36
2019-07-21 14:00:00 32.6 16 Nordeste 36 Nordeste 0 -- -- 43
2019-07-21 13:00:00 31 21 Nordeste 36 Nordeste 0 -- -- 47
2019-07-21 12:00:00 29.7 21 Nordeste 31 Nordeste 0 -- -- 50
2019-07-21 11:00:00 28.4 18 Norte 28 Norte 0 -- -- 51
2019-07-21 10:00:00 26.3 13 Nordeste 28 Norte 0 -- -- 58
2019-07-21 09:00:00 23 13 Norte 24 Norte 0 -- -- 76
2019-07-21 08:00:00 20.5 8 Noroeste 17 Noroeste 0 -- -- 89
2019-07-21 07:00:00 19.5 9 Oeste 18 Norte 0 -- -- 87
2019-07-21 06:00:00 20.3 9 Noroeste 16 Noroeste 0 -- -- 89
2019-07-21 05:00:00 19.8 11 Oeste 15 Oeste 0 -- -- 84
2019-07-21 04:00:00 20.7 7 Noroeste 16 Norte 0 -- -- 83
2019-07-21 03:00:00 21.5 10 Norte 19 Norte 0 -- -- 83
2019-07-21 02:00:00 21.3 8 Norte 12 Norte 0 -- -- 79
2019-07-21 01:00:00 21.4 5 Noroeste 7 Este 0 -- -- 53
2019-07-21 00:00:00 24 5 Este 25 Sur 0 -- -- 44
2019-07-20 23:00:00 25.9 18 Sur 30 Sudeste 0 -- -- 40
2019-07-20 22:00:00 26.9 24 Sur 32 Sur 0 -- -- 38
2019-07-20 21:00:00 29.3 15 Sur 24 Sur 0 -- -- 33
2019-07-20 20:00:00 32.1 15 Sur 30 Sur 0 -- -- 27
2019-07-20 19:00:00 33.1 21 Sudeste 35 Sur 0 -- -- 26
2019-07-20 18:00:00 33.5 24 Sur 36 Sudeste 0 -- -- 28
2019-07-20 17:00:00 34 27 Sur 39 Sur 0 -- -- 30
2019-07-20 16:00:00 34.5 23 Sur 42 Sur 0 -- -- 32
2019-07-20 15:00:00 35.6 18 Sur 31 Sur 0 -- -- 29
2019-07-20 14:00:00 35.3 13 Sur 21 Sur 0 -- -- 28
2019-07-20 13:00:00 32.3 4 Norte 18 Noroeste 0 -- -- 39
2019-07-20 12:00:00 29.7 8 Noroeste 17 Noroeste 0 -- -- 48
2019-07-20 11:00:00 26.9 10 Noroeste 16 Noroeste 0 -- -- 55
2019-07-20 10:00:00 24.5 10 Noroeste 19 Noroeste 0 -- -- 65
2019-07-20 09:00:00 21.8 12 Noroeste 17 Noroeste 0 -- -- 80
2019-07-20 08:00:00 19 9 Oeste 14 Noroeste 0 -- -- 89
2019-07-20 07:00:00 16.8 6 Noroeste 10 Noroeste 0 -- -- 87
2019-07-20 06:00:00 16.2 7 Noroeste 9 Noroeste 0 -- -- 86
2019-07-20 05:00:00 16.7 5 Oeste 8 Noroeste 0 -- -- 73
2019-07-20 04:00:00 18 6 Noroeste 8 Noroeste 0 -- -- 75
2019-07-20 03:00:00 19.7 4 Sudeste 12 Sudeste 0 -- -- 67
2019-07-20 02:00:00 20.8 8 Sudeste 15 Sudeste 0 -- -- 65
2019-07-20 01:00:00 20.9 6 Sudeste 12 Sudeste 0 -- -- 63
2019-07-20 00:00:00 20.6 4 Sur 6 Sudeste 0 -- -- 60
2019-07-19 23:00:00 22.1 6 Sudeste 15 Sur 0 -- -- 57
2019-07-19 22:00:00 24.5 11 Sudeste 24 Sudoeste 0 -- -- 53
2019-07-19 21:00:00 26.6 14 Sur 27 Sur 0 -- -- 45
2019-07-19 20:00:00 29.3 17 Sur 30 Sudoeste 0 -- -- 41
2019-07-19 19:00:00 30.5 21 Sudoeste 32 Sudoeste 0 -- -- 39
2019-07-19 18:00:00 32.1 21 Sur 35 Sur 0 -- -- 34
2019-07-19 17:00:00 33.1 24 Sur 35 Sur 0 -- -- 30
2019-07-19 16:00:00 33.7 21 Sur 36 Sur 0 -- -- 26
2019-07-19 15:00:00 33.5 23 Sur 34 Sur 0 -- -- 25
2019-07-19 14:00:00 33.2 14 Sur 31 Sur 0 -- -- 25
2019-07-19 13:00:00 31.8 15 Sur 25 Sur 0 -- -- 29
2019-07-19 12:00:00 30.4 11 Sudeste 18 Sudeste 0 -- -- 28
2019-07-19 11:00:00 28.2 2 Sur 9 Sudoeste 0 -- -- 34
2019-07-19 10:00:00 24.3 3 Este 8 Este 0 -- -- 52
2019-07-19 09:00:00 20.5 0 Calma 9 Este 0 -- -- 72
2019-07-19 08:00:00 15.2 3 Sudeste 4 Sudeste 0 -- -- 78
2019-07-19 07:00:00 13.5 0 Calma 4 Sudoeste 0 -- -- 84
2019-07-19 06:00:00 14.2 3 Noroeste 7 Noroeste 0 -- -- 83
2019-07-19 05:00:00 15 4 Oeste 9 Noroeste 0 -- -- 82
2019-07-19 04:00:00 16.2 3 Oeste 7 Norte 0 -- -- 81
2019-07-19 03:00:00 17.7 3 Sudeste 11 Sudeste 0 -- -- 78
2019-07-19 02:00:00 18.4 8 Sudeste 11 Sudeste 0 -- -- 74
2019-07-19 01:00:00 20.2 6 Este 13 Sudeste 0 -- -- 70
2019-07-19 00:00:00 20.7 5 Este 12 Sur 0 -- -- 64